sensor_id;sensor_type;location;lat;lon;timestamp;P1;P2;P0
54869;PMS5003;40756;-37.950;145.008;2023-08-06T00:00:13;8;8;
54869;PMS5003;40756;-37.950;145.008;2023-08-06T00:02:43;7;7;
54869;PMS5003;40756;-37.950;145.008;2023-08-06T00:05:12;5;5;
54869;PMS5003;40756;-37.950;145.008;2023-08-06T00:07:42;5;5;
54869;PMS5003;40756;-37.950;145.008;2023-08-06T00:10:12;6;6;
54869;PMS5003;40756;-37.950;145.008;2023-08-06T00:12:42;6;6;
54869;PMS5003;40756;-37.950;145.008;2023-08-06T00:15:12;9;7;
54869;PMS5003;40756;-37.950;145.008;2023-08-06T00:17:41;5;5;
54869;PMS5003;40756;-37.950;145.008;2023-08-06T00:20:11;8;7;
54869;PMS5003;40756;-37.950;145.008;2023-08-06T00:22:40;6;6;
54869;PMS5003;40756;-37.950;145.008;2023-08-06T00:25:10;6;6;
54869;PMS5003;40756;-37.950;145.008;2023-08-06T00:27:40;6;6;
54869;PMS5003;40756;-37.950;145.008;2023-08-06T00:30:10;6;6;
54869;PMS5003;40756;-37.950;145.008;2023-08-06T00:32:39;6;6;
54869;PMS5003;40756;-37.950;145.008;2023-08-06T00:35:09;9;8;
54869;PMS5003;40756;-37.950;145.008;2023-08-06T00:37:39;6;6;
54869;PMS5003;40756;-37.950;145.008;2023-08-06T00:40:09;8;8;
54869;PMS5003;40756;-37.950;145.008;2023-08-06T00:42:39;8;8;
54869;PMS5003;40756;-37.950;145.008;2023-08-06T00:45:09;7;7;
54869;PMS5003;40756;-37.950;145.008;2023-08-06T00:47:39;9;9;
54869;PMS5003;40756;-37.950;145.008;2023-08-06T00:50:09;9;9;
54869;PMS5003;40756;-37.950;145.008;2023-08-06T00:52:39;9;9;
54869;PMS5003;40756;-37.950;145.008;2023-08-06T00:55:09;10;10;
54869;PMS5003;40756;-37.950;145.008;2023-08-06T00:57:38;8;7;
54869;PMS5003;40756;-37.950;145.008;2023-08-06T01:00:08;8;7;
54869;PMS5003;40756;-37.950;145.008;2023-08-06T01:02:39;6;6;
54869;PMS5003;40756;-37.950;145.008;2023-08-06T01:05:08;5;5;
54869;PMS5003;40756;-37.950;145.008;2023-08-06T01:07:41;5;5;
54869;PMS5003;40756;-37.950;145.008;2023-08-06T01:10:22;5;5;
54869;PMS5003;40756;-37.950;145.008;2023-08-06T01:13:02;4;4;
54869;PMS5003;40756;-37.950;145.008;2023-08-06T01:15:39;3;3;
54869;PMS5003;40756;-37.950;145.008;2023-08-06T01:18:13;4;4;
54869;PMS5003;40756;-37.950;145.008;2023-08-06T01:20:43;4;4;
54869;PMS5003;40756;-37.950;145.008;2023-08-06T01:23:13;4;4;
54869;PMS5003;40756;-37.950;145.008;2023-08-06T01:25:44;5;5;
54869;PMS5003;40756;-37.950;145.008;2023-08-06T01:28:21;3;3;
54869;PMS5003;40756;-37.950;145.008;2023-08-06T01:30:55;3;3;
54869;PMS5003;40756;-37.950;145.008;2023-08-06T01:33:32;4;4;
54869;PMS5003;40756;-37.950;145.008;2023-08-06T01:36:05;4;4;
54869;PMS5003;40756;-37.950;145.008;2023-08-06T01:38:35;3;3;
54869;PMS5003;40756;-37.950;145.008;2023-08-06T01:41:06;2;2;
54869;PMS5003;40756;-37.950;145.008;2023-08-06T01:43:35;3;3;
54869;PMS5003;40756;-37.950;145.008;2023-08-06T01:46:04;3;3;
54869;PMS5003;40756;-37.950;145.008;2023-08-06T01:48:34;3;3;
54869;PMS5003;40756;-37.950;145.008;2023-08-06T01:51:04;2;2;
54869;PMS5003;40756;-37.950;145.008;2023-08-06T01:53:33;2;2;
54869;PMS5003;40756;-37.950;145.008;2023-08-06T01:56:03;1;1;
54869;PMS5003;40756;-37.950;145.008;2023-08-06T01:58:33;2;2;
54869;PMS5003;40756;-37.950;145.008;2023-08-06T02:01:03;2;2;
54869;PMS5003;40756;-37.950;145.008;2023-08-06T02:03:32;3;3;
54869;PMS5003;40756;-37.950;145.008;2023-08-06T02:06:02;3;3;
54869;PMS5003;40756;-37.950;145.008;2023-08-06T02:08:32;3;3;
54869;PMS5003;40756;-37.950;145.008;2023-08-06T02:11:01;5;5;
54869;PMS5003;40756;-37.950;145.008;2023-08-06T02:13:31;3;3;
54869;PMS5003;40756;-37.950;145.008;2023-08-06T02:16:01;3;3;
54869;PMS5003;40756;-37.950;145.008;2023-08-06T02:18:31;3;3;
54869;PMS5003;40756;-37.950;145.008;2023-08-06T02:21:00;4;4;
54869;PMS5003;40756;-37.950;145.008;2023-08-06T02:23:30;4;4;
54869;PMS5003;40756;-37.950;145.008;2023-08-06T02:26:00;4;4;
54869;PMS5003;40756;-37.950;145.008;2023-08-06T02:28:31;3;3;
54869;PMS5003;40756;-37.950;145.008;2023-08-06T02:31:01;3;3;
54869;PMS5003;40756;-37.950;145.008;2023-08-06T02:33:30;3;3;
54869;PMS5003;40756;-37.950;145.008;2023-08-06T02:36:00;3;3;
54869;PMS5003;40756;-37.950;145.008;2023-08-06T02:38:31;4;4;
54869;PMS5003;40756;-37.950;145.008;2023-08-06T02:41:02;2;2;
54869;PMS5003;40756;-37.950;145.008;2023-08-06T02:43:33;3;3;
54869;PMS5003;40756;-37.950;145.008;2023-08-06T02:46:03;5;5;
54869;PMS5003;40756;-37.950;145.008;2023-08-06T02:48:33;6;6;
54869;PMS5003;40756;-37.950;145.008;2023-08-06T02:51:02;7;7;
54869;PMS5003;40756;-37.950;145.008;2023-08-06T02:53:32;7;7;
54869;PMS5003;40756;-37.950;145.008;2023-08-06T02:56:02;8;8;
54869;PMS5003;40756;-37.950;145.008;2023-08-06T02:58:31;9;8;
54869;PMS5003;40756;-37.950;145.008;2023-08-06T03:01:02;8;8;
54869;PMS5003;40756;-37.950;145.008;2023-08-06T03:03:32;9;7;
54869;PMS5003;40756;-37.950;145.008;2023-08-06T03:06:02;10;9;
54869;PMS5003;40756;-37.950;145.008;2023-08-06T03:08:31;7;6;
54869;PMS5003;40756;-37.950;145.008;2023-08-06T03:11:01;8;8;
54869;PMS5003;40756;-37.950;145.008;2023-08-06T03:13:31;8;8;
54869;PMS5003;40756;-37.950;145.008;2023-08-06T03:16:00;10;10;
54869;PMS5003;40756;-37.950;145.008;2023-08-06T03:18:30;10;9;
54869;PMS5003;40756;-37.950;145.008;2023-08-06T03:20:59;7;7;
54869;PMS5003;40756;-37.950;145.008;2023-08-06T03:23:29;7;7;
54869;PMS5003;40756;-37.950;145.008;2023-08-06T03:26:01;6;6;
54869;PMS5003;40756;-37.950;145.008;2023-08-06T03:28:31;6;6;
54869;PMS5003;40756;-37.950;145.008;2023-08-06T03:31:01;5;5;
54869;PMS5003;40756;-37.950;145.008;2023-08-06T03:33:31;6;6;
54869;PMS5003;40756;-37.950;145.008;2023-08-06T03:36:01;7;6;
54869;PMS5003;40756;-37.950;145.008;2023-08-06T03:38:31;7;7;
54869;PMS5003;40756;-37.950;145.008;2023-08-06T03:41:00;7;7;
54869;PMS5003;40756;-37.950;145.008;2023-08-06T03:43:30;6;6;
54869;PMS5003;40756;-37.950;145.008;2023-08-06T03:46:00;5;5;
54869;PMS5003;40756;-37.950;145.008;2023-08-06T03:48:30;10;10;
54869;PMS5003;40756;-37.950;145.008;2023-08-06T03:50:59;6;6;
54869;PMS5003;40756;-37.950;145.008;2023-08-06T03:53:29;6;6;
54869;PMS5003;40756;-37.950;145.008;2023-08-06T03:55:59;7;7;
54869;PMS5003;40756;-37.950;145.008;2023-08-06T03:58:29;4;4;
54869;PMS5003;40756;-37.950;145.008;2023-08-06T04:00:59;2;2;
54869;PMS5003;40756;-37.950;145.008;2023-08-06T04:03:29;3;3;
54869;PMS5003;40756;-37.950;145.008;2023-08-06T04:05:58;2;2;
54869;PMS5003;40756;-37.950;145.008;2023-08-06T04:08:29;0;0;
54869;PMS5003;40756;-37.950;145.008;2023-08-06T04:10:59;1;1;
54869;PMS5003;40756;-37.950;145.008;2023-08-06T04:13:28;0;0;
54869;PMS5003;40756;-37.950;145.008;2023-08-06T04:16:01;0;0;
54869;PMS5003;40756;-37.950;145.008;2023-08-06T04:18:30;1;0;
54869;PMS5003;40756;-37.950;145.008;2023-08-06T04:21:01;0;0;
54869;PMS5003;40756;-37.950;145.008;2023-08-06T04:23:30;0;0;
54869;PMS5003;40756;-37.950;145.008;2023-08-06T04:26:00;0;0;
54869;PMS5003;40756;-37.950;145.008;2023-08-06T04:28:30;1;1;
54869;PMS5003;40756;-37.950;145.008;2023-08-06T04:30:59;1;1;
54869;PMS5003;40756;-37.950;145.008;2023-08-06T04:33:29;0;0;
54869;PMS5003;40756;-37.950;145.008;2023-08-06T04:35:59;0;0;
54869;PMS5003;40756;-37.950;145.008;2023-08-06T04:38:28;0;0;
54869;PMS5003;40756;-37.950;145.008;2023-08-06T04:40:58;0;0;
54869;PMS5003;40756;-37.950;145.008;2023-08-06T04:43:29;0;0;
54869;PMS5003;40756;-37.950;145.008;2023-08-06T04:45:59;0;0;
54869;PMS5003;40756;-37.950;145.008;2023-08-06T04:48:29;0;0;
54869;PMS5003;40756;-37.950;145.008;2023-08-06T04:50:59;1;0;
54869;PMS5003;40756;-37.950;145.008;2023-08-06T04:53:29;0;0;
54869;PMS5003;40756;-37.950;145.008;2023-08-06T04:55:58;0;0;
54869;PMS5003;40756;-37.950;145.008;2023-08-06T04:58:28;0;0;
54869;PMS5003;40756;-37.950;145.008;2023-08-06T05:00:58;0;0;
54869;PMS5003;40756;-37.950;145.008;2023-08-06T05:03:27;0;0;
54869;PMS5003;40756;-37.950;145.008;2023-08-06T05:05:57;0;0;
54869;PMS5003;40756;-37.950;145.008;2023-08-06T05:08:27;2;1;
54869;PMS5003;40756;-37.950;145.008;2023-08-06T05:10:56;0;0;
54869;PMS5003;40756;-37.950;145.008;2023-08-06T05:13:26;0;0;
54869;PMS5003;40756;-37.950;145.008;2023-08-06T05:15:56;0;0;
54869;PMS5003;40756;-37.950;145.008;2023-08-06T05:18:25;0;0;
54869;PMS5003;40756;-37.950;145.008;2023-08-06T05:20:55;0;0;
54869;PMS5003;40756;-37.950;145.008;2023-08-06T05:23:25;0;0;
54869;PMS5003;40756;-37.950;145.008;2023-08-06T05:25:54;0;0;
54869;PMS5003;40756;-37.950;145.008;2023-08-06T05:28:24;1;1;
54869;PMS5003;40756;-37.950;145.008;2023-08-06T05:30:54;0;0;
54869;PMS5003;40756;-37.950;145.008;2023-08-06T05:33:23;0;0;
54869;PMS5003;40756;-37.950;145.008;2023-08-06T05:35:53;0;0;
54869;PMS5003;40756;-37.950;145.008;2023-08-06T05:38:23;0;0;
54869;PMS5003;40756;-37.950;145.008;2023-08-06T05:40:52;0;0;
54869;PMS5003;40756;-37.950;145.008;2023-08-06T05:43:22;0;0;
54869;PMS5003;40756;-37.950;145.008;2023-08-06T05:45:52;2;2;
54869;PMS5003;40756;-37.950;145.008;2023-08-06T05:48:22;0;0;
54869;PMS5003;40756;-37.950;145.008;2023-08-06T05:50:52;0;0;
54869;PMS5003;40756;-37.950;145.008;2023-08-06T05:53:22;0;0;
54869;PMS5003;40756;-37.950;145.008;2023-08-06T05:55:51;0;0;
54869;PMS5003;40756;-37.950;145.008;2023-08-06T05:58:21;0;0;
54869;PMS5003;40756;-37.950;145.008;2023-08-06T06:00:51;2;2;
54869;PMS5003;40756;-37.950;145.008;2023-08-06T06:03:20;0;0;
54869;PMS5003;40756;-37.950;145.008;2023-08-06T06:05:50;0;0;
54869;PMS5003;40756;-37.950;145.008;2023-08-06T06:08:20;0;0;
54869;PMS5003;40756;-37.950;145.008;2023-08-06T06:10:49;1;0;
54869;PMS5003;40756;-37.950;145.008;2023-08-06T06:13:19;1;1;
54869;PMS5003;40756;-37.950;145.008;2023-08-06T06:15:49;2;2;
54869;PMS5003;40756;-37.950;145.008;2023-08-06T06:18:21;1;1;
54869;PMS5003;40756;-37.950;145.008;2023-08-06T06:20:51;1;1;
54869;PMS5003;40756;-37.950;145.008;2023-08-06T06:23:20;4;4;
54869;PMS5003;40756;-37.950;145.008;2023-08-06T06:25:50;2;1;
54869;PMS5003;40756;-37.950;145.008;2023-08-06T06:28:20;2;2;
54869;PMS5003;40756;-37.950;145.008;2023-08-06T06:30:51;0;0;
54869;PMS5003;40756;-37.950;145.008;2023-08-06T06:33:20;1;1;
54869;PMS5003;40756;-37.950;145.008;2023-08-06T06:35:50;1;0;
54869;PMS5003;40756;-37.950;145.008;2023-08-06T06:38:19;1;1;
54869;PMS5003;40756;-37.950;145.008;2023-08-06T06:40:54;3;3;
54869;PMS5003;40756;-37.950;145.008;2023-08-06T06:43:24;3;3;
54869;PMS5003;40756;-37.950;145.008;2023-08-06T06:45:55;3;3;
54869;PMS5003;40756;-37.950;145.008;2023-08-06T06:48:26;0;0;
54869;PMS5003;40756;-37.950;145.008;2023-08-06T06:50:56;1;1;
54869;PMS5003;40756;-37.950;145.008;2023-08-06T06:53:26;1;1;
54869;PMS5003;40756;-37.950;145.008;2023-08-06T06:55:56;2;1;
54869;PMS5003;40756;-37.950;145.008;2023-08-06T06:58:31;1;1;
54869;PMS5003;40756;-37.950;145.008;2023-08-06T07:01:00;1;1;
54869;PMS5003;40756;-37.950;145.008;2023-08-06T07:03:30;2;2;
54869;PMS5003;40756;-37.950;145.008;2023-08-06T07:06:00;12;11;
54869;PMS5003;40756;-37.950;145.008;2023-08-06T07:08:30;2;2;
54869;PMS5003;40756;-37.950;145.008;2023-08-06T07:11:01;10;10;
54869;PMS5003;40756;-37.950;145.008;2023-08-06T07:13:31;4;3;
54869;PMS5003;40756;-37.950;145.008;2023-08-06T07:16:02;14;14;
54869;PMS5003;40756;-37.950;145.008;2023-08-06T07:18:32;13;13;
54869;PMS5003;40756;-37.950;145.008;2023-08-06T07:21:01;1;1;
54869;PMS5003;40756;-37.950;145.008;2023-08-06T07:23:31;0;0;
54869;PMS5003;40756;-37.950;145.008;2023-08-06T07:26:01;2;2;
54869;PMS5003;40756;-37.950;145.008;2023-08-06T07:28:30;1;1;
54869;PMS5003;40756;-37.950;145.008;2023-08-06T07:31:00;3;1;
54869;PMS5003;40756;-37.950;145.008;2023-08-06T07:33:31;2;2;
54869;PMS5003;40756;-37.950;145.008;2023-08-06T07:36:07;2;1;
54869;PMS5003;40756;-37.950;145.008;2023-08-06T07:38:38;3;2;
54869;PMS5003;40756;-37.950;145.008;2023-08-06T07:41:08;5;5;
54869;PMS5003;40756;-37.950;145.008;2023-08-06T07:43:37;10;10;
54869;PMS5003;40756;-37.950;145.008;2023-08-06T07:46:07;7;7;
54869;PMS5003;40756;-37.950;145.008;2023-08-06T07:48:37;4;4;
54869;PMS5003;40756;-37.950;145.008;2023-08-06T07:51:06;3;3;
54869;PMS5003;40756;-37.950;145.008;2023-08-06T07:53:36;5;5;
54869;PMS5003;40756;-37.950;145.008;2023-08-06T07:56:06;3;3;
54869;PMS5003;40756;-37.950;145.008;2023-08-06T07:58:35;4;4;
54869;PMS5003;40756;-37.950;145.008;2023-08-06T08:01:06;5;5;
54869;PMS5003;40756;-37.950;145.008;2023-08-06T08:03:35;2;2;
54869;PMS5003;40756;-37.950;145.008;2023-08-06T08:06:05;5;4;
54869;PMS5003;40756;-37.950;145.008;2023-08-06T08:08:35;3;3;
54869;PMS5003;40756;-37.950;145.008;2023-08-06T08:11:05;5;5;
54869;PMS5003;40756;-37.950;145.008;2023-08-06T08:13:34;5;5;
54869;PMS5003;40756;-37.950;145.008;2023-08-06T08:16:04;4;4;
54869;PMS5003;40756;-37.950;145.008;2023-08-06T08:18:33;5;4;
54869;PMS5003;40756;-37.950;145.008;2023-08-06T08:21:03;5;5;
54869;PMS5003;40756;-37.950;145.008;2023-08-06T08:23:33;3;3;
54869;PMS5003;40756;-37.950;145.008;2023-08-06T08:26:02;5;4;
54869;PMS5003;40756;-37.950;145.008;2023-08-06T08:28:32;6;5;
54869;PMS5003;40756;-37.950;145.008;2023-08-06T08:31:01;8;8;
54869;PMS5003;40756;-37.950;145.008;2023-08-06T08:33:31;6;6;
54869;PMS5003;40756;-37.950;145.008;2023-08-06T08:36:01;10;10;
54869;PMS5003;40756;-37.950;145.008;2023-08-06T08:38:31;7;7;
54869;PMS5003;40756;-37.950;145.008;2023-08-06T08:41:00;6;6;
54869;PMS5003;40756;-37.950;145.008;2023-08-06T08:43:30;5;5;
54869;PMS5003;40756;-37.950;145.008;2023-08-06T08:46:00;7;7;
54869;PMS5003;40756;-37.950;145.008;2023-08-06T08:48:31;6;5;
54869;PMS5003;40756;-37.950;145.008;2023-08-06T08:51:01;7;7;
54869;PMS5003;40756;-37.950;145.008;2023-08-06T08:53:32;8;8;
54869;PMS5003;40756;-37.950;145.008;2023-08-06T08:56:03;8;8;
54869;PMS5003;40756;-37.950;145.008;2023-08-06T08:58:33;17;17;
54869;PMS5003;40756;-37.950;145.008;2023-08-06T09:01:03;16;15;
54869;PMS5003;40756;-37.950;145.008;2023-08-06T09:03:33;11;11;
54869;PMS5003;40756;-37.950;145.008;2023-08-06T09:06:04;5;5;
54869;PMS5003;40756;-37.950;145.008;2023-08-06T09:08:36;35;33;
54869;PMS5003;40756;-37.950;145.008;2023-08-06T09:11:09;50;46;
54869;PMS5003;40756;-37.950;145.008;2023-08-06T09:13:38;37;35;
54869;PMS5003;40756;-37.950;145.008;2023-08-06T09:16:08;24;22;
54869;PMS5003;40756;-37.950;145.008;2023-08-06T09:18:37;26;25;
54869;PMS5003;40756;-37.950;145.008;2023-08-06T09:21:14;21;21;
54869;PMS5003;40756;-37.950;145.008;2023-08-06T09:23:43;22;21;
54869;PMS5003;40756;-37.950;145.008;2023-08-06T09:26:13;23;21;
54869;PMS5003;40756;-37.950;145.008;2023-08-06T09:28:42;25;24;
54869;PMS5003;40756;-37.950;145.008;2023-08-06T09:31:11;17;17;
54869;PMS5003;40756;-37.950;145.008;2023-08-06T09:33:41;19;19;
54869;PMS5003;40756;-37.950;145.008;2023-08-06T09:36:10;20;20;
54869;PMS5003;40756;-37.950;145.008;2023-08-06T09:38:40;21;20;
54869;PMS5003;40756;-37.950;145.008;2023-08-06T09:41:10;29;28;
54869;PMS5003;40756;-37.950;145.008;2023-08-06T09:43:53;24;23;
54869;PMS5003;40756;-37.950;145.008;2023-08-06T09:46:23;38;38;
54869;PMS5003;40756;-37.950;145.008;2023-08-06T09:48:52;45;42;
54869;PMS5003;40756;-37.950;145.008;2023-08-06T09:51:23;35;34;
54869;PMS5003;40756;-37.950;145.008;2023-08-06T09:53:52;23;21;
54869;PMS5003;40756;-37.950;145.008;2023-08-06T09:56:22;16;15;
54869;PMS5003;40756;-37.950;145.008;2023-08-06T09:58:52;21;19;
54869;PMS5003;40756;-37.950;145.008;2023-08-06T10:01:23;29;26;
54869;PMS5003;40756;-37.950;145.008;2023-08-06T10:03:53;25;25;
54869;PMS5003;40756;-37.950;145.008;2023-08-06T10:06:25;27;27;
54869;PMS5003;40756;-37.950;145.008;2023-08-06T10:08:56;25;24;
54869;PMS5003;40756;-37.950;145.008;2023-08-06T10:11:25;22;20;
54869;PMS5003;40756;-37.950;145.008;2023-08-06T10:13:58;32;31;
54869;PMS5003;40756;-37.950;145.008;2023-08-06T10:16:34;37;37;
54869;PMS5003;40756;-37.950;145.008;2023-08-06T10:19:04;13;12;
54869;PMS5003;40756;-37.950;145.008;2023-08-06T10:21:36;6;6;
54869;PMS5003;40756;-37.950;145.008;2023-08-06T10:24:07;6;6;
54869;PMS5003;40756;-37.950;145.008;2023-08-06T10:26:41;7;7;
54869;PMS5003;40756;-37.950;145.008;2023-08-06T10:29:36;7;7;
54869;PMS5003;40756;-37.950;145.008;2023-08-06T10:32:05;8;7;
54869;PMS5003;40756;-37.950;145.008;2023-08-06T10:35:09;10;9;
54869;PMS5003;40756;-37.950;145.008;2023-08-06T10:37:59;7;7;
54869;PMS5003;40756;-37.950;145.008;2023-08-06T10:40:34;8;8;
54869;PMS5003;40756;-37.950;145.008;2023-08-06T10:43:05;8;8;
54869;PMS5003;40756;-37.950;145.008;2023-08-06T10:45:35;11;10;
54869;PMS5003;40756;-37.950;145.008;2023-08-06T10:48:06;10;9;
54869;PMS5003;40756;-37.950;145.008;2023-08-06T10:50:36;11;10;
54869;PMS5003;40756;-37.950;145.008;2023-08-06T10:53:07;10;9;
54869;PMS5003;40756;-37.950;145.008;2023-08-06T10:55:39;13;12;
54869;PMS5003;40756;-37.950;145.008;2023-08-06T10:58:09;13;13;
54869;PMS5003;40756;-37.950;145.008;2023-08-06T11:00:41;12;11;
54869;PMS5003;40756;-37.950;145.008;2023-08-06T11:03:11;11;11;
54869;PMS5003;40756;-37.950;145.008;2023-08-06T11:05:42;12;12;
54869;PMS5003;40756;-37.950;145.008;2023-08-06T11:08:23;14;14;
54869;PMS5003;40756;-37.950;145.008;2023-08-06T11:10:54;12;12;
54869;PMS5003;40756;-37.950;145.008;2023-08-06T11:13:35;16;14;
54869;PMS5003;40756;-37.950;145.008;2023-08-06T11:16:04;12;12;
54869;PMS5003;40756;-37.950;145.008;2023-08-06T11:18:34;16;15;
54869;PMS5003;40756;-37.950;145.008;2023-08-06T11:21:04;13;13;
54869;PMS5003;40756;-37.950;145.008;2023-08-06T11:23:34;19;19;
54869;PMS5003;40756;-37.950;145.008;2023-08-06T11:26:03;17;17;
54869;PMS5003;40756;-37.950;145.008;2023-08-06T11:28:33;17;16;
54869;PMS5003;40756;-37.950;145.008;2023-08-06T11:31:03;18;18;
54869;PMS5003;40756;-37.950;145.008;2023-08-06T11:33:32;18;17;
54869;PMS5003;40756;-37.950;145.008;2023-08-06T11:36:02;15;15;
54869;PMS5003;40756;-37.950;145.008;2023-08-06T11:38:32;16;16;
54869;PMS5003;40756;-37.950;145.008;2023-08-06T11:41:01;18;17;
54869;PMS5003;40756;-37.950;145.008;2023-08-06T11:43:32;20;18;
54869;PMS5003;40756;-37.950;145.008;2023-08-06T11:46:02;17;17;
54869;PMS5003;40756;-37.950;145.008;2023-08-06T11:48:31;20;20;
54869;PMS5003;40756;-37.950;145.008;2023-08-06T11:51:17;20;19;
54869;PMS5003;40756;-37.950;145.008;2023-08-06T11:53:51;21;21;
54869;PMS5003;40756;-37.950;145.008;2023-08-06T11:56:23;24;23;
54869;PMS5003;40756;-37.950;145.008;2023-08-06T11:58:53;19;19;
54869;PMS5003;40756;-37.950;145.008;2023-08-06T12:01:23;22;20;
54869;PMS5003;40756;-37.950;145.008;2023-08-06T12:03:57;21;21;
54869;PMS5003;40756;-37.950;145.008;2023-08-06T12:06:27;22;22;
54869;PMS5003;40756;-37.950;145.008;2023-08-06T12:08:56;21;19;
54869;PMS5003;40756;-37.950;145.008;2023-08-06T12:11:26;22;20;
54869;PMS5003;40756;-37.950;145.008;2023-08-06T12:13:56;23;22;
54869;PMS5003;40756;-37.950;145.008;2023-08-06T12:16:27;20;20;
54869;PMS5003;40756;-37.950;145.008;2023-08-06T12:18:57;19;19;
54869;PMS5003;40756;-37.950;145.008;2023-08-06T12:21:28;21;20;
54869;PMS5003;40756;-37.950;145.008;2023-08-06T12:23:58;18;18;
54869;PMS5003;40756;-37.950;145.008;2023-08-06T12:26:27;28;25;
54869;PMS5003;40756;-37.950;145.008;2023-08-06T12:28:57;20;18;
54869;PMS5003;40756;-37.950;145.008;2023-08-06T12:31:27;25;23;
54869;PMS5003;40756;-37.950;145.008;2023-08-06T12:33:56;22;22;
54869;PMS5003;40756;-37.950;145.008;2023-08-06T12:36:25;27;26;
54869;PMS5003;40756;-37.950;145.008;2023-08-06T12:38:55;30;27;
54869;PMS5003;40756;-37.950;145.008;2023-08-06T12:41:24;57;54;
54869;PMS5003;40756;-37.950;145.008;2023-08-06T12:43:54;97;90;
54869;PMS5003;40756;-37.950;145.008;2023-08-06T12:46:24;85;79;
54869;PMS5003;40756;-37.950;145.008;2023-08-06T12:48:53;68;66;
54869;PMS5003;40756;-37.950;145.008;2023-08-06T12:51:24;52;49;
54869;PMS5003;40756;-37.950;145.008;2023-08-06T12:53:54;47;44;
54869;PMS5003;40756;-37.950;145.008;2023-08-06T12:56:23;44;43;
54869;PMS5003;40756;-37.950;145.008;2023-08-06T12:58:53;42;42;
54869;PMS5003;40756;-37.950;145.008;2023-08-06T13:01:22;60;58;
54869;PMS5003;40756;-37.950;145.008;2023-08-06T13:03:52;52;51;
54869;PMS5003;40756;-37.950;145.008;2023-08-06T13:06:22;54;52;
54869;PMS5003;40756;-37.950;145.008;2023-08-06T13:08:51;44;43;
54869;PMS5003;40756;-37.950;145.008;2023-08-06T13:11:21;42;42;
54869;PMS5003;40756;-37.950;145.008;2023-08-06T13:13:50;48;48;
54869;PMS5003;40756;-37.950;145.008;2023-08-06T13:16:20;48;47;
54869;PMS5003;40756;-37.950;145.008;2023-08-06T13:18:49;47;44;
54869;PMS5003;40756;-37.950;145.008;2023-08-06T13:21:18;52;48;
54869;PMS5003;40756;-37.950;145.008;2023-08-06T13:23:47;47;46;
54869;PMS5003;40756;-37.950;145.008;2023-08-06T13:26:17;52;51;
54869;PMS5003;40756;-37.950;145.008;2023-08-06T13:28:47;66;64;
54869;PMS5003;40756;-37.950;145.008;2023-08-06T13:31:16;56;53;
54869;PMS5003;40756;-37.950;145.008;2023-08-06T13:33:46;61;59;
54869;PMS5003;40756;-37.950;145.008;2023-08-06T13:36:15;50;48;
54869;PMS5003;40756;-37.950;145.008;2023-08-06T13:38:45;52;49;
54869;PMS5003;40756;-37.950;145.008;2023-08-06T13:41:14;40;38;
54869;PMS5003;40756;-37.950;145.008;2023-08-06T13:43:44;40;37;
54869;PMS5003;40756;-37.950;145.008;2023-08-06T13:46:13;34;34;
54869;PMS5003;40756;-37.950;145.008;2023-08-06T13:48:43;36;35;
54869;PMS5003;40756;-37.950;145.008;2023-08-06T13:51:14;35;34;
54869;PMS5003;40756;-37.950;145.008;2023-08-06T13:53:44;43;39;
54869;PMS5003;40756;-37.950;145.008;2023-08-06T13:56:14;37;33;
54869;PMS5003;40756;-37.950;145.008;2023-08-06T13:58:44;37;37;
54869;PMS5003;40756;-37.950;145.008;2023-08-06T14:01:13;37;36;
54869;PMS5003;40756;-37.950;145.008;2023-08-06T14:03:46;33;32;
54869;PMS5003;40756;-37.950;145.008;2023-08-06T14:06:15;33;30;
54869;PMS5003;40756;-37.950;145.008;2023-08-06T14:08:45;34;34;
54869;PMS5003;40756;-37.950;145.008;2023-08-06T14:11:14;30;29;
54869;PMS5003;40756;-37.950;145.008;2023-08-06T14:13:44;32;32;
54869;PMS5003;40756;-37.950;145.008;2023-08-06T14:16:13;31;30;
54869;PMS5003;40756;-37.950;145.008;2023-08-06T14:18:43;27;26;
54869;PMS5003;40756;-37.950;145.008;2023-08-06T14:21:12;25;25;
54869;PMS5003;40756;-37.950;145.008;2023-08-06T14:23:41;29;29;
54869;PMS5003;40756;-37.950;145.008;2023-08-06T14:26:11;26;25;
54869;PMS5003;40756;-37.950;145.008;2023-08-06T14:28:41;28;26;
54869;PMS5003;40756;-37.950;145.008;2023-08-06T14:31:11;26;25;
54869;PMS5003;40756;-37.950;145.008;2023-08-06T14:33:41;27;25;
54869;PMS5003;40756;-37.950;145.008;2023-08-06T14:36:10;24;23;
54869;PMS5003;40756;-37.950;145.008;2023-08-06T14:38:40;26;25;
54869;PMS5003;40756;-37.950;145.008;2023-08-06T14:41:10;23;22;
54869;PMS5003;40756;-37.950;145.008;2023-08-06T14:43:39;21;20;
54869;PMS5003;40756;-37.950;145.008;2023-08-06T14:46:09;21;21;
54869;PMS5003;40756;-37.950;145.008;2023-08-06T14:48:39;24;24;
54869;PMS5003;40756;-37.950;145.008;2023-08-06T14:51:08;23;23;
54869;PMS5003;40756;-37.950;145.008;2023-08-06T14:53:38;27;25;
54869;PMS5003;40756;-37.950;145.008;2023-08-06T14:56:08;27;26;
54869;PMS5003;40756;-37.950;145.008;2023-08-06T14:58:38;26;26;
54869;PMS5003;40756;-37.950;145.008;2023-08-06T15:01:08;25;25;
54869;PMS5003;40756;-37.950;145.008;2023-08-06T15:03:37;27;25;
54869;PMS5003;40756;-37.950;145.008;2023-08-06T15:06:07;22;20;
54869;PMS5003;40756;-37.950;145.008;2023-08-06T15:08:36;22;22;
54869;PMS5003;40756;-37.950;145.008;2023-08-06T15:11:05;21;20;
54869;PMS5003;40756;-37.950;145.008;2023-08-06T15:13:35;19;19;
54869;PMS5003;40756;-37.950;145.008;2023-08-06T15:16:05;23;20;
54869;PMS5003;40756;-37.950;145.008;2023-08-06T15:18:34;20;20;
54869;PMS5003;40756;-37.950;145.008;2023-08-06T15:21:04;20;19;
54869;PMS5003;40756;-37.950;145.008;2023-08-06T15:23:34;20;19;
54869;PMS5003;40756;-37.950;145.008;2023-08-06T15:26:03;18;18;
54869;PMS5003;40756;-37.950;145.008;2023-08-06T15:28:33;17;17;
54869;PMS5003;40756;-37.950;145.008;2023-08-06T15:31:03;19;18;
54869;PMS5003;40756;-37.950;145.008;2023-08-06T15:33:32;15;15;
54869;PMS5003;40756;-37.950;145.008;2023-08-06T15:36:02;14;14;
54869;PMS5003;40756;-37.950;145.008;2023-08-06T15:38:32;13;13;
54869;PMS5003;40756;-37.950;145.008;2023-08-06T15:41:02;15;13;
54869;PMS5003;40756;-37.950;145.008;2023-08-06T15:43:32;12;11;
54869;PMS5003;40756;-37.950;145.008;2023-08-06T15:46:01;9;9;
54869;PMS5003;40756;-37.950;145.008;2023-08-06T15:48:31;11;11;
54869;PMS5003;40756;-37.950;145.008;2023-08-06T15:51:01;12;12;
54869;PMS5003;40756;-37.950;145.008;2023-08-06T15:53:30;12;10;
54869;PMS5003;40756;-37.950;145.008;2023-08-06T15:56:00;9;9;
54869;PMS5003;40756;-37.950;145.008;2023-08-06T15:58:30;9;9;
54869;PMS5003;40756;-37.950;145.008;2023-08-06T16:01:01;9;8;
54869;PMS5003;40756;-37.950;145.008;2023-08-06T16:03:30;10;9;
54869;PMS5003;40756;-37.950;145.008;2023-08-06T16:05:59;8;8;
54869;PMS5003;40756;-37.950;145.008;2023-08-06T16:08:29;8;8;